createdAt,value
2022-08-28T00:01:35.178Z,17.92
2022-08-28T00:03:37.929Z,17.91
2022-08-28T00:05:43.506Z,18.02
2022-08-28T00:07:47.934Z,18.06
2022-08-28T00:09:50.855Z,18.07
2022-08-28T00:11:53.811Z,18.14
2022-08-28T00:13:56.789Z,18.06
2022-08-28T00:16:01.727Z,18.13
2022-08-28T00:18:05.715Z,18.06
2022-08-28T00:20:10.999Z,18.12
2022-08-28T00:22:15.182Z,18.17
2022-08-28T00:24:18.627Z,18.23
2022-08-28T00:26:35.680Z,18.25
2022-08-28T00:28:38.362Z,18.25
2022-08-28T00:30:43.586Z,18.35
2022-08-28T00:32:46.427Z,18.26
2022-08-28T00:34:49.113Z,18.28
2022-08-28T00:36:51.761Z,18.21
2022-08-28T00:38:56.855Z,18.22
2022-08-28T00:41:04.035Z,18.16
2022-08-28T00:43:09.900Z,18.15
2022-08-28T00:45:12.642Z,18.10
2022-08-28T00:47:15.391Z,18.10
2022-08-28T00:49:22.213Z,18.05
2022-08-28T00:51:42.992Z,18.06
2022-08-28T00:53:46.056Z,18.04
2022-08-28T00:55:50.773Z,18.07
2022-08-28T00:57:55.947Z,18.05
2022-08-28T00:59:58.682Z,18.04
2022-08-28T01:02:02.152Z,18.03
2022-08-28T01:04:06.171Z,17.96
2022-08-28T01:06:09.890Z,17.96
2022-08-28T01:08:12.796Z,17.93
2022-08-28T01:10:21.989Z,17.97
2022-08-28T01:12:30.708Z,17.92
2022-08-28T01:14:36.266Z,17.92
2022-08-28T01:16:41.182Z,17.98
2022-08-28T01:18:44.878Z,18.02
2022-08-28T01:20:54.177Z,18.01
2022-08-28T01:23:04.612Z,17.94
2022-08-28T01:25:13.166Z,17.97
2022-08-28T01:27:16.072Z,17.97
2022-08-28T01:29:20.772Z,17.95
2022-08-28T01:31:25.032Z,17.95
2022-08-28T01:33:28.949Z,17.89
2022-08-28T01:35:34.693Z,17.95
2022-08-28T01:37:38.554Z,18.00
2022-08-28T01:39:41.253Z,17.87
2022-08-28T01:41:47.961Z,17.83
2022-08-28T01:43:50.693Z,17.83
2022-08-28T01:45:55.999Z,17.85
2022-08-28T01:47:58.764Z,17.80
2022-08-28T01:50:01.389Z,17.80
2022-08-28T01:52:05.419Z,17.71
2022-08-28T01:54:09.954Z,17.74
2022-08-28T01:56:16.126Z,17.69
2022-08-28T01:58:20.751Z,17.63
2022-08-28T02:00:26.890Z,17.64
2022-08-28T02:02:31.716Z,17.60
2022-08-28T02:04:34.492Z,17.65
2022-08-28T02:06:37.821Z,17.60
2022-08-28T02:08:40.656Z,17.60
2022-08-28T02:10:44.611Z,17.55
2022-08-28T02:12:49.094Z,17.58
2022-08-28T02:14:53.109Z,17.58
2022-08-28T02:16:56.205Z,17.56
2022-08-28T02:18:58.891Z,17.55
2022-08-28T02:21:01.623Z,17.52
2022-08-28T02:23:06.052Z,17.50
2022-08-28T02:25:10.390Z,17.51
2022-08-28T02:27:13.520Z,17.53
2022-08-28T02:29:16.190Z,17.52
2022-08-28T02:31:20.857Z,17.54
2022-08-28T02:33:23.592Z,17.56
2022-08-28T02:35:26.257Z,17.61
2022-08-28T02:37:29.003Z,17.65
2022-08-28T02:39:32.715Z,17.62
2022-08-28T02:41:35.362Z,17.62
2022-08-28T02:43:38.486Z,17.60
2022-08-28T02:45:41.159Z,17.65
2022-08-28T02:47:46.726Z,17.76
2022-08-28T02:49:49.872Z,17.65
2022-08-28T02:51:52.585Z,17.62
2022-08-28T02:53:56.475Z,17.72
2022-08-28T02:56:00.507Z,17.72
2022-08-28T02:58:03.141Z,17.75
2022-08-28T03:00:07.572Z,17.70
2022-08-28T03:02:10.354Z,17.68
2022-08-28T03:04:14.445Z,17.69
2022-08-28T03:06:17.144Z,17.83
2022-08-28T03:08:19.831Z,17.83
2022-08-28T03:10:26.015Z,17.85
2022-08-28T03:12:28.981Z,17.73
2022-08-28T03:14:31.673Z,17.67
2022-08-28T03:16:34.661Z,17.80
2022-08-28T03:18:37.773Z,17.78
2022-08-28T03:20:42.374Z,17.78
2022-08-28T03:23:05.076Z,17.70
2022-08-28T03:25:08.549Z,17.77
2022-08-28T03:27:11.807Z,17.78
2022-08-28T03:29:14.622Z,17.70
2022-08-28T03:31:20.983Z,17.78
2022-08-28T03:33:23.733Z,17.78
2022-08-28T03:35:26.411Z,17.76
2022-08-28T03:37:30.483Z,17.75
2022-08-28T03:39:33.113Z,17.80
2022-08-28T03:41:36.002Z,17.75
2022-08-28T03:43:38.981Z,17.72
2022-08-28T03:45:41.971Z,17.73
2022-08-28T03:47:44.669Z,17.69
2022-08-28T03:49:48.121Z,17.66
2022-08-28T03:51:50.835Z,17.72
2022-08-28T03:53:55.453Z,17.67
2022-08-28T03:55:58.812Z,17.70
2022-08-28T03:58:02.045Z,17.73
2022-08-28T04:00:09.188Z,17.76
2022-08-28T04:02:11.860Z,17.70
2022-08-28T04:04:14.860Z,17.66
2022-08-28T04:06:18.232Z,17.71
2022-08-28T04:08:22.565Z,17.79
2022-08-28T04:10:26.591Z,17.82
2022-08-28T04:12:29.259Z,17.73
2022-08-28T04:14:38.494Z,17.71
2022-08-28T04:16:41.395Z,17.66
2022-08-28T04:18:44.227Z,17.71
2022-08-28T04:20:46.888Z,17.79
2022-08-28T04:22:49.863Z,17.75
2022-08-28T04:24:57.847Z,17.77
2022-08-28T04:27:01.883Z,17.68
2022-08-28T04:29:05.180Z,17.75
2022-08-28T04:31:09.031Z,17.70
2022-08-28T04:33:12.100Z,17.75
2022-08-28T04:35:16.062Z,17.68
2022-08-28T04:37:19.027Z,17.62
2022-08-28T04:39:21.743Z,17.67
2022-08-28T04:41:24.477Z,17.63
2022-08-28T04:43:28.535Z,17.66
2022-08-28T04:45:32.049Z,17.60
2022-08-28T04:47:36.615Z,17.59
2022-08-28T04:49:40.578Z,17.67
2022-08-28T04:51:43.307Z,17.55
2022-08-28T04:53:49.713Z,17.55
2022-08-28T04:55:55.238Z,17.63
2022-08-28T04:57:58.120Z,17.61
2022-08-28T05:00:02.303Z,17.56
2022-08-28T05:02:05.554Z,17.56
2022-08-28T05:04:08.383Z,17.63
2022-08-28T05:06:13.882Z,17.73
2022-08-28T05:08:19.379Z,17.69
2022-08-28T05:10:22.143Z,17.66
2022-08-28T05:12:24.875Z,17.60
2022-08-28T05:14:27.549Z,17.60
2022-08-28T05:16:31.781Z,17.63
2022-08-28T05:18:34.728Z,17.62
2022-08-28T05:20:38.523Z,17.72
2022-08-28T05:22:41.204Z,17.69
2022-08-28T05:24:44.241Z,17.66
2022-08-28T05:26:48.059Z,17.72
2022-08-28T05:28:51.449Z,17.65
2022-08-28T05:30:54.135Z,17.66
2022-08-28T05:32:59.142Z,17.70
2022-08-28T05:35:01.820Z,17.76
2022-08-28T05:37:06.486Z,17.76
2022-08-28T05:39:11.645Z,17.70
2022-08-28T05:41:20.579Z,17.76
2022-08-28T05:43:23.227Z,17.73
2022-08-28T05:45:26.048Z,17.69
2022-08-28T05:47:32.450Z,17.68
2022-08-28T05:49:36.447Z,17.63
2022-08-28T05:51:41.529Z,17.71
2022-08-28T05:53:46.452Z,17.77
2022-08-28T05:55:51.700Z,17.81
2022-08-28T05:57:54.712Z,17.79
2022-08-28T05:59:57.429Z,17.77
2022-08-28T06:02:04.149Z,17.81
2022-08-28T06:04:09.796Z,17.85
2022-08-28T06:06:14.410Z,17.92
2022-08-28T06:08:17.087Z,17.84
2022-08-28T06:10:19.977Z,17.94
2022-08-28T06:12:22.725Z,17.94
2022-08-28T06:14:25.880Z,17.94
2022-08-28T06:16:29.173Z,17.94
2022-08-28T06:18:32.371Z,17.96
2022-08-28T06:20:37.621Z,18.00
2022-08-28T06:22:41.620Z,18.01
2022-08-28T06:24:44.279Z,18.02
2022-08-28T06:26:47.027Z,18.08
2022-08-28T06:28:49.852Z,18.22
2022-08-28T06:31:18.686Z,18.16
2022-08-28T06:33:17.857Z,18.22
2022-08-28T06:35:20.560Z,18.08
2022-08-28T06:37:23.225Z,18.31
2022-08-28T06:39:27.241Z,18.38
2022-08-28T06:41:32.074Z,18.53
2022-08-28T06:43:34.785Z,18.43
2022-08-28T06:45:42.149Z,18.48
2022-08-28T06:47:44.792Z,18.34
2022-08-28T06:49:47.450Z,18.45
2022-08-28T06:51:50.392Z,18.38
2022-08-28T06:53:53.367Z,18.31
2022-08-28T06:56:06.483Z,18.32
2022-08-28T06:58:10.393Z,18.36
2022-08-28T07:00:14.050Z,18.37
2022-08-28T07:02:16.870Z,18.41
2022-08-28T07:04:19.960Z,18.53
2022-08-28T07:06:24.163Z,18.63
2022-08-28T07:08:27.966Z,18.51
2022-08-28T07:10:31.228Z,18.50
2022-08-28T07:12:35.598Z,18.48
2022-08-28T07:14:38.660Z,18.46
2022-08-28T07:16:41.742Z,18.43
2022-08-28T07:18:45.328Z,18.44
2022-08-28T07:20:56.554Z,18.39
2022-08-28T07:22:59.613Z,18.39
2022-08-28T07:25:02.703Z,18.68
2022-08-28T07:27:05.497Z,18.78
2022-08-28T07:29:11.436Z,18.79
2022-08-28T07:31:17.562Z,18.74
2022-08-28T07:33:20.309Z,18.81
2022-08-28T07:35:23.232Z,18.71
2022-08-28T07:37:26.036Z,18.79
2022-08-28T07:39:28.689Z,19.06
2022-08-28T07:41:33.892Z,18.87
2022-08-28T07:43:54.307Z,18.89
2022-08-28T07:46:03.161Z,18.91
2022-08-28T07:48:11.325Z,18.90
2022-08-28T07:50:15.157Z,19.06
2022-08-28T07:52:17.877Z,19.32
2022-08-28T07:54:20.967Z,19.52
2022-08-28T07:56:24.209Z,19.12
2022-08-28T07:58:27.258Z,19.45
2022-08-28T08:00:29.949Z,19.60
2022-08-28T08:02:34.143Z,19.37
2022-08-28T08:04:37.301Z,18.99
2022-08-28T08:06:42.095Z,19.39
2022-08-28T08:08:45.921Z,19.51
2022-08-28T08:10:57.415Z,19.66
2022-08-28T08:13:00.182Z,19.46
2022-08-28T08:15:02.924Z,19.65
2022-08-28T08:17:07.444Z,19.51
2022-08-28T08:19:14.853Z,19.84
2022-08-28T08:21:19.926Z,19.92
2022-08-28T08:23:22.903Z,19.99
2022-08-28T08:25:25.589Z,19.68
2022-08-28T08:27:28.550Z,19.65
2022-08-28T08:29:35.876Z,20.11
2022-08-28T08:31:38.753Z,19.88
2022-08-28T08:33:48.366Z,19.93
2022-08-28T08:35:52.418Z,20.05
2022-08-28T08:37:55.136Z,20.46
2022-08-28T08:39:57.894Z,20.53
2022-08-28T08:42:03.814Z,20.22
2022-08-28T08:44:09.929Z,20.11
2022-08-28T08:46:12.688Z,19.85
2022-08-28T08:48:25.834Z,20.28
2022-08-28T08:50:31.440Z,20.49
2022-08-28T08:52:52.620Z,20.96
2022-08-28T08:55:07.099Z,20.94
2022-08-28T08:57:12.349Z,22.20
2022-08-28T08:59:18.583Z,22.43
2022-08-28T09:01:26.827Z,23.50
2022-08-28T09:03:45.589Z,23.42
2022-08-28T09:05:53.615Z,22.15
2022-08-28T09:08:02.656Z,21.37
2022-08-28T09:10:08.374Z,20.67
2022-08-28T09:12:15.981Z,20.72
2022-08-28T09:14:30.763Z,21.03
2022-08-28T09:16:37.453Z,20.84
2022-08-28T09:18:40.424Z,20.88
2022-08-28T09:20:43.147Z,20.91
2022-08-28T09:22:48.988Z,20.67
2022-08-28T09:24:54.530Z,21.01
2022-08-28T09:27:00.211Z,21.39
2022-08-28T09:29:06.511Z,21.60
2022-08-28T09:31:13.972Z,21.74
2022-08-28T09:33:28.184Z,22.37
2022-08-28T09:35:32.826Z,22.66
2022-08-28T09:37:37.300Z,23.47
2022-08-28T09:39:40.584Z,24.49
2022-08-28T09:42:17.435Z,25.52
2022-08-28T09:44:19.218Z,24.78
2022-08-28T09:46:25.692Z,24.38
2022-08-28T09:48:35.644Z,23.25
2022-08-28T09:50:41.647Z,22.71
2022-08-28T09:52:44.359Z,21.95
2022-08-28T09:54:48.256Z,22.37
2022-08-28T09:56:52.673Z,22.17
2022-08-28T09:58:59.434Z,22.89
2022-08-28T10:01:11.457Z,22.97
2022-08-28T10:03:19.052Z,23.21
2022-08-28T10:05:36.184Z,24.93
2022-08-28T10:07:48.647Z,25.46
2022-08-28T10:10:02.214Z,25.75
2022-08-28T10:12:28.877Z,26.95
2022-08-28T10:14:45.477Z,26.11
2022-08-28T10:16:58.285Z,25.62
2022-08-28T10:19:07.316Z,25.65
2022-08-28T10:21:19.043Z,25.85
2022-08-28T10:23:32.706Z,25.04
2022-08-28T10:25:43.292Z,23.27
2022-08-28T10:28:03.132Z,22.71
2022-08-28T10:30:13.131Z,22.50
2022-08-28T10:32:43.632Z,22.50
2022-08-28T10:35:01.471Z,22.47
2022-08-28T10:37:13.108Z,22.82
2022-08-28T10:39:31.299Z,23.37
2022-08-28T10:41:42.105Z,23.60
2022-08-28T10:43:49.661Z,24.07
2022-08-28T10:45:54.812Z,24.00
2022-08-28T10:48:01.334Z,24.06
2022-08-28T10:50:10.287Z,23.95
2022-08-28T10:52:18.048Z,24.66
2022-08-28T10:54:27.423Z,24.26
2022-08-28T10:56:37.811Z,23.39
2022-08-28T10:58:41.709Z,22.93
2022-08-28T11:00:47.485Z,22.59
2022-08-28T11:02:53.901Z,22.13
2022-08-28T11:04:58.883Z,21.85
2022-08-28T11:07:05.759Z,22.33
2022-08-28T11:09:24.957Z,22.68
2022-08-28T11:11:44.111Z,23.54
2022-08-28T11:13:56.987Z,23.24
2022-08-28T11:16:01.614Z,23.40
2022-08-28T11:18:31.773Z,23.09
2022-08-28T11:20:35.166Z,23.28
2022-08-28T11:22:42.615Z,23.28
2022-08-28T11:24:57.967Z,23.14
2022-08-28T11:27:21.423Z,23.16
2022-08-28T11:30:17.891Z,22.57
2022-08-28T11:32:55.204Z,23.36
2022-08-28T11:34:59.907Z,24.11
2022-08-28T11:37:03.732Z,23.85
2022-08-28T11:39:19.118Z,23.99
2022-08-28T11:41:26.292Z,23.85
2022-08-28T11:43:35.877Z,24.56
2022-08-28T11:46:07.357Z,23.95
2022-08-28T11:48:48.329Z,23.65
2022-08-28T11:50:58.480Z,23.85
2022-08-28T11:53:31.563Z,24.47
2022-08-28T11:55:56.930Z,24.82
2022-08-28T12:00:20.466Z,24.41
2022-08-28T12:02:56.523Z,24.07
2022-08-28T12:04:59.337Z,23.93
2022-08-28T12:07:23.877Z,24.86
2022-08-28T12:09:44.022Z,24.62
2022-08-28T12:11:59.113Z,24.43
2022-08-28T12:14:01.868Z,23.84
2022-08-28T12:16:06.863Z,23.37
2022-08-28T12:18:18.030Z,23.50
2022-08-28T12:20:49.027Z,23.63
2022-08-28T12:22:56.376Z,24.09
2022-08-28T12:25:03.270Z,24.10
2022-08-28T12:27:09.037Z,24.34
2022-08-28T12:29:28.021Z,24.46
2022-08-28T12:32:13.419Z,24.06
2022-08-28T12:34:25.413Z,24.30
2022-08-28T12:36:28.905Z,24.30
2022-08-28T12:38:35.464Z,24.71
2022-08-28T12:40:51.139Z,24.92
2022-08-28T12:42:56.491Z,24.74
2022-08-28T12:45:03.204Z,23.94
2022-08-28T12:47:06.505Z,24.59
2022-08-28T12:49:28.394Z,24.69
2022-08-28T12:51:33.330Z,24.32
2022-08-28T12:53:46.724Z,24.54
2022-08-28T12:55:49.521Z,25.06
2022-08-28T12:57:52.619Z,25.07
2022-08-28T12:59:56.816Z,25.18
2022-08-28T13:02:03.108Z,25.39
2022-08-28T13:04:27.112Z,24.81
2022-08-28T13:06:33.356Z,24.26
2022-08-28T13:08:37.386Z,24.00
2022-08-28T13:10:44.365Z,23.76
2022-08-28T13:12:55.963Z,24.35
2022-08-28T13:15:00.174Z,24.59
2022-08-28T13:17:03.056Z,24.65
2022-08-28T13:19:27.860Z,24.30
2022-08-28T13:21:37.322Z,24.89
2022-08-28T13:23:40.578Z,24.68
2022-08-28T13:25:44.674Z,24.35
2022-08-28T13:27:57.271Z,24.03
2022-08-28T13:30:05.472Z,23.83
2022-08-28T13:32:10.130Z,24.32
2022-08-28T13:34:24.588Z,24.58
2022-08-28T13:36:27.430Z,25.14
2022-08-28T13:38:30.269Z,24.60
2022-08-28T13:40:57.452Z,24.57
2022-08-28T13:43:06.941Z,24.19
2022-08-28T13:45:10.438Z,23.89
2022-08-28T13:47:13.886Z,23.61
2022-08-28T13:49:16.975Z,23.76
2022-08-28T13:51:21.368Z,23.39
2022-08-28T13:53:24.193Z,24.04
2022-08-28T13:55:27.005Z,24.01
2022-08-28T13:57:29.954Z,24.22
2022-08-28T13:59:35.411Z,23.96
2022-08-28T14:01:56.995Z,24.53
2022-08-28T14:04:00.342Z,25.13
2022-08-28T14:06:03.760Z,24.61
2022-08-28T14:08:06.479Z,24.58
2022-08-28T14:10:10.249Z,24.83
2022-08-28T14:12:13.255Z,24.43
2022-08-28T14:14:16.096Z,24.10
2022-08-28T14:16:20.223Z,24.16
2022-08-28T14:18:23.859Z,24.18
2022-08-28T14:20:26.564Z,24.19
2022-08-28T14:22:30.919Z,24.41
2022-08-28T14:24:33.703Z,24.25
2022-08-28T14:26:36.520Z,24.18
2022-08-28T14:28:39.228Z,24.24
2022-08-28T14:30:45.248Z,24.35
2022-08-28T14:32:49.400Z,24.34
2022-08-28T14:34:52.091Z,24.49
2022-08-28T14:36:56.023Z,24.45
2022-08-28T14:39:05.404Z,24.70
2022-08-28T14:41:09.728Z,24.52
2022-08-28T14:43:15.363Z,24.57
2022-08-28T14:45:18.305Z,24.49
2022-08-28T14:47:21.709Z,24.28
2022-08-28T14:49:26.853Z,24.19
2022-08-28T14:51:31.906Z,24.04
2022-08-28T14:53:34.849Z,24.13
2022-08-28T14:55:42.388Z,24.41
2022-08-28T14:57:46.052Z,24.54
2022-08-28T14:59:51.656Z,24.74
2022-08-28T15:01:57.997Z,24.91
2022-08-28T15:04:01.104Z,24.56
2022-08-28T15:06:07.896Z,24.61
2022-08-28T15:08:12.809Z,24.72
2022-08-28T15:10:15.420Z,24.69
2022-08-28T15:12:19.828Z,24.72
2022-08-28T15:14:23.252Z,24.99
2022-08-28T15:16:30.347Z,24.63
2022-08-28T15:18:34.339Z,24.60
2022-08-28T15:20:38.959Z,24.75
2022-08-28T15:22:43.048Z,24.55
2022-08-28T15:24:46.395Z,24.55
2022-08-28T15:26:49.200Z,24.81
2022-08-28T15:28:55.643Z,24.82
2022-08-28T15:30:58.324Z,24.86
2022-08-28T15:33:01.073Z,25.10
2022-08-28T15:35:03.925Z,25.18
2022-08-28T15:37:07.844Z,25.08
2022-08-28T15:39:30.863Z,24.84
2022-08-28T15:41:33.603Z,24.73
2022-08-28T15:43:36.379Z,24.94
2022-08-28T15:45:40.036Z,24.82
2022-08-28T15:47:42.838Z,25.03
2022-08-28T15:49:48.772Z,24.85
2022-08-28T15:51:53.241Z,24.63
2022-08-28T15:53:56.486Z,24.46
2022-08-28T15:56:00.673Z,24.43
2022-08-28T15:58:03.414Z,24.27
2022-08-28T16:00:10.368Z,24.61
2022-08-28T16:02:14.379Z,24.56
2022-08-28T16:04:17.642Z,24.61
2022-08-28T16:06:22.310Z,24.49
2022-08-28T16:08:25.070Z,24.60
2022-08-28T16:10:28.128Z,24.15
2022-08-28T16:12:32.492Z,24.32
2022-08-28T16:14:35.429Z,23.97
2022-08-28T16:16:38.484Z,23.98
2022-08-28T16:18:42.362Z,24.16
2022-08-28T16:20:46.111Z,24.09
2022-08-28T16:22:48.801Z,23.89
2022-08-28T16:24:51.673Z,24.02
2022-08-28T16:26:54.662Z,24.12
2022-08-28T16:28:58.894Z,24.08
2022-08-28T16:31:04.922Z,23.86
2022-08-28T16:33:10.662Z,23.89
2022-08-28T16:35:14.860Z,23.68
2022-08-28T16:37:20.824Z,23.69
2022-08-28T16:39:25.551Z,23.85
2022-08-28T16:41:29.177Z,23.70
2022-08-28T16:43:34.508Z,23.48
2022-08-28T16:45:38.915Z,23.44
2022-08-28T16:47:41.654Z,23.60
2022-08-28T16:49:44.359Z,23.41
2022-08-28T16:51:47.483Z,23.28
2022-08-28T16:53:50.123Z,23.36
2022-08-28T16:55:52.801Z,23.45
2022-08-28T16:57:56.199Z,23.52
2022-08-28T17:00:00.030Z,23.38
2022-08-28T17:02:04.085Z,23.38
2022-08-28T17:04:08.131Z,23.39
2022-08-28T17:06:13.783Z,23.33
2022-08-28T17:08:16.986Z,23.24
2022-08-28T17:10:22.877Z,23.26
2022-08-28T17:12:25.595Z,23.26
2022-08-28T17:14:28.384Z,23.18
2022-08-28T17:16:32.168Z,23.15
2022-08-28T17:18:36.557Z,23.07
2022-08-28T17:20:56.707Z,23.16
2022-08-28T17:22:59.492Z,23.14
2022-08-28T17:25:03.569Z,23.12
2022-08-28T17:27:06.706Z,23.13
2022-08-28T17:29:09.909Z,22.94
2022-08-28T17:31:13.765Z,23.01
2022-08-28T17:33:16.744Z,22.94
2022-08-28T17:35:21.109Z,22.97
2022-08-28T17:37:26.067Z,22.97
2022-08-28T17:39:28.701Z,22.80
2022-08-28T17:41:31.982Z,22.92
2022-08-28T17:43:36.015Z,22.92
2022-08-28T17:45:38.769Z,22.95
2022-08-28T17:47:41.977Z,22.81
2022-08-28T17:49:44.716Z,22.78
2022-08-28T17:51:48.858Z,22.74
2022-08-28T17:53:51.543Z,22.63
2022-08-28T17:55:54.242Z,22.52
2022-08-28T17:57:56.972Z,22.48
2022-08-28T18:00:00.923Z,22.38
2022-08-28T18:02:03.709Z,22.41
2022-08-28T18:04:06.828Z,22.36
2022-08-28T18:06:09.569Z,22.28
2022-08-28T18:08:13.902Z,22.20
2022-08-28T18:10:16.845Z,22.16
2022-08-28T18:12:19.730Z,22.23
2022-08-28T18:14:22.594Z,22.04
2022-08-28T18:16:30.359Z,21.89
2022-08-28T18:18:36.352Z,21.80
2022-08-28T18:20:39.359Z,21.83
2022-08-28T18:22:42.084Z,21.62
2022-08-28T18:24:46.204Z,21.67
2022-08-28T18:26:49.438Z,21.71
2022-08-28T18:28:52.626Z,21.66
2022-08-28T18:30:55.626Z,21.57
2022-08-28T18:32:58.617Z,21.40
2022-08-28T18:35:01.348Z,21.32
2022-08-28T18:37:04.101Z,21.32
2022-08-28T18:39:06.925Z,21.30
2022-08-28T18:41:12.131Z,21.20
2022-08-28T18:43:15.112Z,21.17
2022-08-28T18:45:18.709Z,21.07
2022-08-28T18:47:21.492Z,21.07
2022-08-28T18:49:24.186Z,21.07
2022-08-28T18:51:27.045Z,20.88
2022-08-28T18:53:29.841Z,20.92
2022-08-28T18:55:33.782Z,20.88
2022-08-28T18:57:37.843Z,20.74
2022-08-28T18:59:40.632Z,20.64
2022-08-28T19:01:43.687Z,20.64
2022-08-28T19:03:46.562Z,20.65
2022-08-28T19:05:49.591Z,20.59
2022-08-28T19:07:53.274Z,20.55
2022-08-28T19:09:57.274Z,20.57
2022-08-28T19:12:00.082Z,20.48
2022-08-28T19:14:04.736Z,20.51
2022-08-28T19:16:07.800Z,20.56
2022-08-28T19:18:11.859Z,20.59
2022-08-28T19:20:19.618Z,20.57
2022-08-28T19:22:23.369Z,20.94
2022-08-28T19:24:30.370Z,21.04
2022-08-28T19:26:33.597Z,20.90
2022-08-28T19:28:37.431Z,20.81
2022-08-28T19:30:42.089Z,20.82
2022-08-28T19:32:46.370Z,20.69
2022-08-28T19:34:49.050Z,20.58
2022-08-28T19:36:51.950Z,20.58
2022-08-28T19:38:54.683Z,20.60
2022-08-28T19:40:57.465Z,20.63
2022-08-28T19:43:00.727Z,20.52
2022-08-28T19:45:03.896Z,20.53
2022-08-28T19:47:08.150Z,20.50
2022-08-28T19:49:11.099Z,20.41
2022-08-28T19:51:22.465Z,20.46
2022-08-28T19:53:26.345Z,20.45
2022-08-28T19:55:29.820Z,20.33
2022-08-28T19:57:32.702Z,20.40
2022-08-28T19:59:36.177Z,20.34
2022-08-28T20:01:43.480Z,20.32
2022-08-28T20:03:47.933Z,20.36
2022-08-28T20:05:50.854Z,20.30
2022-08-28T20:07:53.706Z,20.22
2022-08-28T20:09:56.360Z,20.14
2022-08-28T20:12:00.768Z,20.14
2022-08-28T20:14:06.062Z,20.11
2022-08-28T20:16:09.135Z,20.07
2022-08-28T20:18:12.359Z,20.09
2022-08-28T20:20:17.702Z,20.08
2022-08-28T20:22:20.399Z,20.02
2022-08-28T20:24:24.896Z,19.95
2022-08-28T20:26:28.090Z,20.00
2022-08-28T20:28:31.601Z,19.87
2022-08-28T20:30:34.312Z,19.71
2022-08-28T20:32:39.956Z,19.68
2022-08-28T20:34:44.608Z,19.60
2022-08-28T20:36:49.192Z,19.56
2022-08-28T20:38:51.880Z,19.56
2022-08-28T20:41:02.817Z,19.55
2022-08-28T20:43:06.500Z,19.53
2022-08-28T20:45:09.960Z,19.49
2022-08-28T20:47:12.566Z,19.47
2022-08-28T20:49:16.288Z,19.49
2022-08-28T20:51:39.379Z,19.54
2022-08-28T20:53:43.460Z,19.50
2022-08-28T20:55:46.744Z,19.52
2022-08-28T20:57:49.432Z,19.64
2022-08-28T20:59:54.066Z,19.67
2022-08-28T21:01:56.792Z,19.71
2022-08-28T21:03:59.580Z,19.55
2022-08-28T21:06:02.348Z,19.55
2022-08-28T21:08:05.090Z,19.38
2022-08-28T21:10:09.859Z,19.36
2022-08-28T21:12:12.905Z,19.48
2022-08-28T21:14:16.035Z,19.57
2022-08-28T21:16:19.088Z,19.61
2022-08-28T21:18:21.805Z,19.54
2022-08-28T21:20:26.798Z,19.63
2022-08-28T21:22:31.478Z,19.58
2022-08-28T21:24:34.292Z,19.60
2022-08-28T21:26:40.500Z,19.48
2022-08-28T21:28:45.388Z,19.47
2022-08-28T21:30:48.145Z,19.42
2022-08-28T21:32:51.160Z,19.37
2022-08-28T21:34:55.689Z,19.22
2022-08-28T21:36:58.541Z,19.32
2022-08-28T21:39:01.216Z,19.31
2022-08-28T21:41:05.088Z,19.31
2022-08-28T21:43:09.202Z,19.28
2022-08-28T21:45:13.220Z,19.28
2022-08-28T21:47:15.908Z,19.19
2022-08-28T21:49:18.626Z,19.14
2022-08-28T21:51:21.647Z,19.05
2022-08-28T21:53:25.007Z,18.96
2022-08-28T21:55:27.691Z,18.92
2022-08-28T21:57:31.192Z,18.88
2022-08-28T21:59:37.867Z,18.87
2022-08-28T22:01:41.078Z,18.91
2022-08-28T22:03:44.496Z,18.92
2022-08-28T22:05:49.424Z,18.95
2022-08-28T22:07:52.145Z,18.95
2022-08-28T22:09:54.841Z,18.93
2022-08-28T22:11:57.578Z,18.82
2022-08-28T22:14:00.992Z,18.80
2022-08-28T22:16:05.601Z,18.81
2022-08-28T22:18:08.893Z,18.75
2022-08-28T22:20:12.050Z,18.73
2022-08-28T22:22:32.764Z,18.73
2022-08-28T22:24:36.559Z,18.68
2022-08-28T22:26:39.269Z,18.69
2022-08-28T22:28:42.011Z,18.67
2022-08-28T22:30:44.717Z,18.71
2022-08-28T22:32:48.981Z,18.80
2022-08-28T22:34:51.616Z,18.77
2022-08-28T22:36:54.259Z,18.77
2022-08-28T22:38:58.305Z,18.67
2022-08-28T22:41:00.997Z,18.63
2022-08-28T22:43:03.738Z,18.54
2022-08-28T22:45:07.444Z,18.45
2022-08-28T22:47:10.083Z,18.44
2022-08-28T22:49:14.187Z,18.52
2022-08-28T22:51:19.232Z,18.48
2022-08-28T22:53:22.133Z,18.41
2022-08-28T22:55:24.998Z,18.44
2022-08-28T22:57:29.234Z,18.41
2022-08-28T22:59:32.274Z,18.38
2022-08-28T23:01:35.365Z,18.40
2022-08-28T23:03:38.163Z,18.35
2022-08-28T23:05:42.609Z,18.31
2022-08-28T23:07:45.527Z,18.34
2022-08-28T23:09:48.312Z,18.34
2022-08-28T23:11:51.313Z,18.36
2022-08-28T23:13:54.035Z,18.36
2022-08-28T23:15:56.734Z,18.32
2022-08-28T23:17:59.466Z,18.41
2022-08-28T23:20:05.633Z,18.40
2022-08-28T23:22:09.710Z,18.45
2022-08-28T23:24:13.472Z,18.45
2022-08-28T23:26:17.159Z,18.56
2022-08-28T23:28:20.778Z,18.61
2022-08-28T23:30:24.469Z,18.60
2022-08-28T23:32:28.422Z,18.56
2022-08-28T23:34:31.121Z,18.52
2022-08-28T23:36:35.874Z,18.46
2022-08-28T23:38:42.910Z,18.55
2022-08-28T23:40:46.058Z,18.55
2022-08-28T23:42:48.950Z,18.53
2022-08-28T23:44:52.319Z,18.52
2022-08-28T23:46:56.329Z,18.47
2022-08-28T23:49:00.027Z,18.46
2022-08-28T23:51:02.908Z,18.38
2022-08-28T23:53:05.892Z,18.40
2022-08-28T23:55:12.052Z,18.39
2022-08-28T23:57:14.952Z,18.36
2022-08-28T23:59:21.319Z,18.30
